College Station, TX (77845)

8:37 AM CST on February 11, 2016 (GMT -0600)
Fox Meadows | | Change Station
CLOSE
Current Station
Personal Weather Station
Location: College Station, TX
Elevation: 289 ft
Nearby Weather Stations

Elev 289 ft 30.59 °N, 96.31 °W | Updated 17 seconds ago

Clear
Clear
54.8 °F
Feels Like 54.8 °F
N
0.0
Wind Variable Wind from North
Gusts 0.0 mph

Today
High -- | Low -- °F
--% Chance of Precip.
Yesterday
High -- | Low -- °F
Precip. -- in
Pressure 30.16 in
Visibility 10.0 miles
Clouds Clear
Dew Point 22 °F
Humidity 28%
Rainfall Not available.
Snow Depth Not available.
7:09 AM 6:09 PM
Waxing Crescent, 12% visible
METAR KCLL 111353Z 20007KT 10SM CLR 11/03 A3016 RMK AO2 SLP211 T01060033
Pressure 30.16 in
Visibility 10.0 miles
Clouds Clear
Dew Point 22 °F
Humidity 28%
Rainfall Not available.
Snow Depth Not available.
7:09 AM 6:09 PM
Waxing Crescent, 12% visible
METAR KCLL 111353Z 20007KT 10SM CLR 11/03 A3016 RMK AO2 SLP211 T01060033

10-Day Weather Forecast

Almanac

Astronomy

Feb. 11, 2016 Rise Set
Actual Time
Civil Twilight
Nautical Twilight
Astronomical Twilight
Moon
Length of Visible Light
Length of Day
Tomorrow will be .
, % of the Moon is Illuminated

Today's Extremes

State Highs State Lows

Community

WunderPhotos

Upload Photos

1,892,054 photos uploaded!

WunderBlog® & News

Nearby

Air Quality

  Air Quality AQ Index Pollutant
Not available.

Snow Depth

Station Depth Elevation

Earthquake Activity

City Distance Mag. Time & Date
Minimum magnitude displayed is 2.5.

Coastal Water Temperatures

Place Temperature

Stations

Nearby Weather Stations

Station Location Temp. Windchill Dew Point Humidity Wind Precip. Elev Updated Type
                   

Watches & Warnings

There are currently no watches in effect.